sensor_id;sensor_type;location;lat;lon;timestamp;pressure;altitude;pressure_sealevel;temperature;humidity
58967;BME280;44744;51.894;5.080;2022-07-06T00:00:34;102700.25;;;14.65;57.35
58967;BME280;44744;51.894;5.080;2022-07-06T00:02:05;102700.34;;;14.63;57.32
58967;BME280;44744;51.894;5.080;2022-07-06T00:03:07;102699.70;;;14.61;57.26
58967;BME280;44744;51.894;5.080;2022-07-06T00:04:08;102701.22;;;14.59;57.40
58967;BME280;44744;51.894;5.080;2022-07-06T00:05:08;102697.38;;;14.57;57.44
58967;BME280;44744;51.894;5.080;2022-07-06T00:06:12;102699.14;;;14.57;57.37
58967;BME280;44744;51.894;5.080;2022-07-06T00:07:12;102701.84;;;14.57;57.36
58967;BME280;44744;51.894;5.080;2022-07-06T00:08:13;102697.95;;;14.56;57.45
58967;BME280;44744;51.894;5.080;2022-07-06T00:09:13;102697.80;;;14.56;57.42
58967;BME280;44744;51.894;5.080;2022-07-06T00:10:14;102696.95;;;14.55;57.40
58967;BME280;44744;51.894;5.080;2022-07-06T00:11:17;102697.52;;;14.54;57.48
58967;BME280;44744;51.894;5.080;2022-07-06T00:12:27;102697.92;;;14.53;57.57
58967;BME280;44744;51.894;5.080;2022-07-06T00:14:46;102692.83;;;14.51;57.60
58967;BME280;44744;51.894;5.080;2022-07-06T00:15:46;102692.34;;;14.50;57.67
58967;BME280;44744;51.894;5.080;2022-07-06T00:16:47;102691.13;;;14.49;57.65
58967;BME280;44744;51.894;5.080;2022-07-06T00:18:00;102689.42;;;14.47;57.78
58967;BME280;44744;51.894;5.080;2022-07-06T00:19:00;102691.21;;;14.47;57.75
58967;BME280;44744;51.894;5.080;2022-07-06T00:20:01;102689.14;;;14.45;57.74
58967;BME280;44744;51.894;5.080;2022-07-06T00:21:04;102689.36;;;14.45;57.82
58967;BME280;44744;51.894;5.080;2022-07-06T00:22:05;102693.98;;;14.44;57.79
58967;BME280;44744;51.894;5.080;2022-07-06T00:23:15;102688.71;;;14.43;57.80
58967;BME280;44744;51.894;5.080;2022-07-06T00:24:15;102687.71;;;14.42;57.82
58967;BME280;44744;51.894;5.080;2022-07-06T00:25:16;102690.43;;;14.40;57.91
58967;BME280;44744;51.894;5.080;2022-07-06T00:26:16;102690.48;;;14.39;57.81
58967;BME280;44744;51.894;5.080;2022-07-06T00:27:19;102690.52;;;14.38;57.84
58967;BME280;44744;51.894;5.080;2022-07-06T00:28:22;102691.83;;;14.37;57.80
58967;BME280;44744;51.894;5.080;2022-07-06T00:29:28;102694.14;;;14.37;57.95
58967;BME280;44744;51.894;5.080;2022-07-06T00:30:29;102693.80;;;14.37;57.89
58967;BME280;44744;51.894;5.080;2022-07-06T00:31:59;102691.35;;;14.35;57.92
58967;BME280;44744;51.894;5.080;2022-07-06T00:33:01;102694.44;;;14.34;57.94
58967;BME280;44744;51.894;5.080;2022-07-06T00:34:02;102692.02;;;14.32;57.89
58967;BME280;44744;51.894;5.080;2022-07-06T00:35:05;102693.65;;;14.31;57.85
58967;BME280;44744;51.894;5.080;2022-07-06T00:36:06;102691.91;;;14.30;57.97
58967;BME280;44744;51.894;5.080;2022-07-06T00:37:07;102690.39;;;14.28;57.93
58967;BME280;44744;51.894;5.080;2022-07-06T00:38:07;102695.89;;;14.28;57.92
58967;BME280;44744;51.894;5.080;2022-07-06T00:39:08;102695.07;;;14.27;57.94
58967;BME280;44744;51.894;5.080;2022-07-06T00:40:08;102691.04;;;14.26;58.05
58967;BME280;44744;51.894;5.080;2022-07-06T00:41:51;102692.18;;;14.24;57.93
58967;BME280;44744;51.894;5.080;2022-07-06T00:43:03;102693.14;;;14.22;57.92
58967;BME280;44744;51.894;5.080;2022-07-06T00:44:07;102693.08;;;14.19;58.05
58967;BME280;44744;51.894;5.080;2022-07-06T00:45:12;102692.63;;;14.17;58.06
58967;BME280;44744;51.894;5.080;2022-07-06T00:46:13;102693.55;;;14.16;58.22
58967;BME280;44744;51.894;5.080;2022-07-06T00:47:17;102690.55;;;14.15;58.30
58967;BME280;44744;51.894;5.080;2022-07-06T00:48:28;102694.00;;;14.14;58.23
58967;BME280;44744;51.894;5.080;2022-07-06T00:49:32;102695.27;;;14.13;58.31
58967;BME280;44744;51.894;5.080;2022-07-06T00:50:55;102695.27;;;14.13;58.38
58967;BME280;44744;51.894;5.080;2022-07-06T00:51:59;102694.00;;;14.14;58.47
58967;BME280;44744;51.894;5.080;2022-07-06T00:53:06;102692.42;;;14.13;58.43
58967;BME280;44744;51.894;5.080;2022-07-06T00:54:10;102694.16;;;14.14;58.60
58967;BME280;44744;51.894;5.080;2022-07-06T00:55:12;102694.65;;;14.15;58.63
58967;BME280;44744;51.894;5.080;2022-07-06T00:56:23;102692.36;;;14.15;58.58
58967;BME280;44744;51.894;5.080;2022-07-06T00:57:26;102690.02;;;14.11;58.55
58967;BME280;44744;51.894;5.080;2022-07-06T00:58:29;102691.45;;;14.11;58.57
58967;BME280;44744;51.894;5.080;2022-07-06T00:59:55;102692.35;;;14.11;58.56
58967;BME280;44744;51.894;5.080;2022-07-06T01:00:56;102689.91;;;14.10;58.63
58967;BME280;44744;51.894;5.080;2022-07-06T01:02:09;102692.29;;;14.08;58.74
58967;BME280;44744;51.894;5.080;2022-07-06T01:03:09;102692.34;;;14.06;58.69
58967;BME280;44744;51.894;5.080;2022-07-06T01:04:24;102692.75;;;14.05;58.85
58967;BME280;44744;51.894;5.080;2022-07-06T01:05:25;102689.78;;;14.04;58.80
58967;BME280;44744;51.894;5.080;2022-07-06T01:06:26;102696.22;;;14.03;58.85
58967;BME280;44744;51.894;5.080;2022-07-06T01:07:48;102693.19;;;14.03;58.97
58967;BME280;44744;51.894;5.080;2022-07-06T01:08:50;102694.48;;;14.02;59.00
58967;BME280;44744;51.894;5.080;2022-07-06T01:09:50;102691.90;;;13.99;58.98
58967;BME280;44744;51.894;5.080;2022-07-06T01:10:51;102693.03;;;13.98;59.03
58967;BME280;44744;51.894;5.080;2022-07-06T01:11:52;102693.08;;;13.97;59.08
58967;BME280;44744;51.894;5.080;2022-07-06T01:12:54;102696.68;;;13.96;59.10
58967;BME280;44744;51.894;5.080;2022-07-06T01:14:00;102698.53;;;13.94;59.09
58967;BME280;44744;51.894;5.080;2022-07-06T01:15:02;102695.24;;;13.92;59.24
58967;BME280;44744;51.894;5.080;2022-07-06T01:16:03;102699.17;;;13.91;59.18
58967;BME280;44744;51.894;5.080;2022-07-06T01:17:04;102698.67;;;13.91;59.34
58967;BME280;44744;51.894;5.080;2022-07-06T01:18:08;102697.09;;;13.90;59.25
58967;BME280;44744;51.894;5.080;2022-07-06T01:19:17;102697.84;;;13.89;59.20
58967;BME280;44744;51.894;5.080;2022-07-06T01:20:25;102692.69;;;13.89;59.31
58967;BME280;44744;51.894;5.080;2022-07-06T01:21:29;102692.55;;;13.88;59.30
58967;BME280;44744;51.894;5.080;2022-07-06T01:22:30;102693.98;;;13.88;59.37
58967;BME280;44744;51.894;5.080;2022-07-06T01:23:30;102690.79;;;13.88;59.33
58967;BME280;44744;51.894;5.080;2022-07-06T01:24:31;102692.74;;;13.87;59.34
58967;BME280;44744;51.894;5.080;2022-07-06T01:25:44;102695.41;;;13.88;59.43
58967;BME280;44744;51.894;5.080;2022-07-06T01:26:45;102696.10;;;13.88;59.41
58967;BME280;44744;51.894;5.080;2022-07-06T01:27:54;102695.02;;;13.88;59.45
58967;BME280;44744;51.894;5.080;2022-07-06T01:28:55;102692.20;;;13.88;59.35
58967;BME280;44744;51.894;5.080;2022-07-06T01:29:56;102696.65;;;13.87;59.28
58967;BME280;44744;51.894;5.080;2022-07-06T01:31:17;102693.84;;;13.87;59.40
58967;BME280;44744;51.894;5.080;2022-07-06T01:32:18;102694.29;;;13.85;59.54
58967;BME280;44744;51.894;5.080;2022-07-06T01:33:18;102696.83;;;13.83;59.48
58967;BME280;44744;51.894;5.080;2022-07-06T01:34:22;102695.59;;;13.83;59.51
58967;BME280;44744;51.894;5.080;2022-07-06T01:35:24;102696.30;;;13.83;59.58
58967;BME280;44744;51.894;5.080;2022-07-06T01:36:29;102693.29;;;13.82;59.56
58967;BME280;44744;51.894;5.080;2022-07-06T01:37:32;102691.36;;;13.82;59.53
58967;BME280;44744;51.894;5.080;2022-07-06T01:38:43;102693.52;;;13.81;59.56
58967;BME280;44744;51.894;5.080;2022-07-06T01:39:48;102687.84;;;13.81;59.69
58967;BME280;44744;51.894;5.080;2022-07-06T01:40:51;102692.85;;;13.80;59.77
58967;BME280;44744;51.894;5.080;2022-07-06T01:42:00;102683.98;;;13.79;59.72
58967;BME280;44744;51.894;5.080;2022-07-06T01:43:06;102687.91;;;13.79;59.64
58967;BME280;44744;51.894;5.080;2022-07-06T01:44:07;102686.67;;;13.79;59.70
58967;BME280;44744;51.894;5.080;2022-07-06T01:45:10;102683.30;;;13.79;59.77
58967;BME280;44744;51.894;5.080;2022-07-06T01:46:13;102683.66;;;13.78;59.79
58967;BME280;44744;51.894;5.080;2022-07-06T01:47:23;102685.47;;;13.78;59.93
58967;BME280;44744;51.894;5.080;2022-07-06T01:48:24;102681.63;;;13.76;59.90
58967;BME280;44744;51.894;5.080;2022-07-06T01:49:45;102683.42;;;13.76;60.00
58967;BME280;44744;51.894;5.080;2022-07-06T01:50:48;102683.45;;;13.75;59.91
58967;BME280;44744;51.894;5.080;2022-07-06T01:51:48;102681.95;;;13.73;60.09
58967;BME280;44744;51.894;5.080;2022-07-06T01:52:51;102681.77;;;13.72;60.10
58967;BME280;44744;51.894;5.080;2022-07-06T01:53:52;102684.28;;;13.72;60.05
58967;BME280;44744;51.894;5.080;2022-07-06T01:54:54;102683.64;;;13.71;60.09
58967;BME280;44744;51.894;5.080;2022-07-06T01:55:57;102682.11;;;13.69;60.17
58967;BME280;44744;51.894;5.080;2022-07-06T01:56:58;102684.63;;;13.68;60.28
58967;BME280;44744;51.894;5.080;2022-07-06T01:58:08;102683.57;;;13.67;60.24
58967;BME280;44744;51.894;5.080;2022-07-06T01:59:31;102683.23;;;13.67;60.24
58967;BME280;44744;51.894;5.080;2022-07-06T02:00:33;102689.10;;;13.67;60.18
58967;BME280;44744;51.894;5.080;2022-07-06T02:01:34;102689.27;;;13.66;60.22
58967;BME280;44744;51.894;5.080;2022-07-06T02:02:34;102688.59;;;13.66;60.24
58967;BME280;44744;51.894;5.080;2022-07-06T02:03:35;102688.95;;;13.66;60.26
58967;BME280;44744;51.894;5.080;2022-07-06T02:04:35;102686.87;;;13.65;60.23
58967;BME280;44744;51.894;5.080;2022-07-06T02:05:42;102685.86;;;13.63;60.29
58967;BME280;44744;51.894;5.080;2022-07-06T02:06:47;102688.53;;;13.63;60.40
58967;BME280;44744;51.894;5.080;2022-07-06T02:07:53;102685.19;;;13.62;60.42
58967;BME280;44744;51.894;5.080;2022-07-06T02:08:54;102688.76;;;13.62;60.32
58967;BME280;44744;51.894;5.080;2022-07-06T02:09:57;102688.38;;;13.62;60.53
58967;BME280;44744;51.894;5.080;2022-07-06T02:10:57;102687.64;;;13.63;60.40
58967;BME280;44744;51.894;5.080;2022-07-06T02:12:18;102688.73;;;13.62;60.44
58967;BME280;44744;51.894;5.080;2022-07-06T02:13:20;102688.08;;;13.61;60.51
58967;BME280;44744;51.894;5.080;2022-07-06T02:14:23;102687.07;;;13.60;60.48
58967;BME280;44744;51.894;5.080;2022-07-06T02:15:23;102687.23;;;13.60;60.59
58967;BME280;44744;51.894;5.080;2022-07-06T02:16:24;102685.87;;;13.58;60.60
58967;BME280;44744;51.894;5.080;2022-07-06T02:17:25;102686.95;;;13.58;60.62
58967;BME280;44744;51.894;5.080;2022-07-06T02:18:51;102688.59;;;13.57;60.62
58967;BME280;44744;51.894;5.080;2022-07-06T02:19:51;102692.94;;;13.55;60.51
58967;BME280;44744;51.894;5.080;2022-07-06T02:20:54;102687.14;;;13.53;60.59
58967;BME280;44744;51.894;5.080;2022-07-06T02:21:58;102689.13;;;13.52;60.71
58967;BME280;44744;51.894;5.080;2022-07-06T02:23:22;102689.83;;;13.53;60.78
58967;BME280;44744;51.894;5.080;2022-07-06T02:24:22;102690.54;;;13.52;60.85
58967;BME280;44744;51.894;5.080;2022-07-06T02:25:25;102690.09;;;13.51;60.79
58967;BME280;44744;51.894;5.080;2022-07-06T02:26:28;102694.69;;;13.51;60.84
58967;BME280;44744;51.894;5.080;2022-07-06T02:27:31;102691.70;;;13.50;60.93
58967;BME280;44744;51.894;5.080;2022-07-06T02:28:52;102691.73;;;13.49;60.80
58967;BME280;44744;51.894;5.080;2022-07-06T02:30:14;102690.13;;;13.48;60.88
58967;BME280;44744;51.894;5.080;2022-07-06T02:31:17;102692.46;;;13.48;60.96
58967;BME280;44744;51.894;5.080;2022-07-06T02:32:47;102691.79;;;13.47;60.99
58967;BME280;44744;51.894;5.080;2022-07-06T02:33:47;102686.13;;;13.47;61.08
58967;BME280;44744;51.894;5.080;2022-07-06T02:34:52;102690.80;;;13.46;61.11
58967;BME280;44744;51.894;5.080;2022-07-06T02:35:53;102690.45;;;13.46;61.12
58967;BME280;44744;51.894;5.080;2022-07-06T02:36:53;102690.09;;;13.45;61.10
58967;BME280;44744;51.894;5.080;2022-07-06T02:37:54;102692.05;;;13.45;61.23
58967;BME280;44744;51.894;5.080;2022-07-06T02:38:57;102688.85;;;13.46;61.21
58967;BME280;44744;51.894;5.080;2022-07-06T02:40:01;102689.56;;;13.45;61.19
58967;BME280;44744;51.894;5.080;2022-07-06T02:41:01;102687.61;;;13.45;61.25
58967;BME280;44744;51.894;5.080;2022-07-06T02:43:13;102688.67;;;13.45;61.32
58967;BME280;44744;51.894;5.080;2022-07-06T02:44:22;102687.13;;;13.44;61.21
58967;BME280;44744;51.894;5.080;2022-07-06T02:45:23;102686.42;;;13.44;61.34
58967;BME280;44744;51.894;5.080;2022-07-06T02:46:23;102689.45;;;13.43;61.31
58967;BME280;44744;51.894;5.080;2022-07-06T02:47:23;102687.86;;;13.43;61.54
58967;BME280;44744;51.894;5.080;2022-07-06T02:48:24;102688.23;;;13.43;61.48
58967;BME280;44744;51.894;5.080;2022-07-06T02:49:24;102690.57;;;13.42;61.49
58967;BME280;44744;51.894;5.080;2022-07-06T02:50:35;102689.89;;;13.42;61.57
58967;BME280;44744;51.894;5.080;2022-07-06T02:51:35;102690.47;;;13.40;61.56
58967;BME280;44744;51.894;5.080;2022-07-06T02:52:36;102690.13;;;13.40;61.58
58967;BME280;44744;51.894;5.080;2022-07-06T02:53:39;102693.71;;;13.39;61.58
58967;BME280;44744;51.894;5.080;2022-07-06T02:54:40;102691.23;;;13.39;61.67
58967;BME280;44744;51.894;5.080;2022-07-06T02:55:43;102689.64;;;13.38;61.66
58967;BME280;44744;51.894;5.080;2022-07-06T02:56:44;102692.31;;;13.38;61.63
58967;BME280;44744;51.894;5.080;2022-07-06T02:57:57;102690.59;;;13.37;61.66
58967;BME280;44744;51.894;5.080;2022-07-06T02:59:00;102689.52;;;13.37;61.67
58967;BME280;44744;51.894;5.080;2022-07-06T03:00:04;102686.91;;;13.36;61.68
58967;BME280;44744;51.894;5.080;2022-07-06T03:01:13;102689.02;;;13.36;61.75
58967;BME280;44744;51.894;5.080;2022-07-06T03:02:26;102686.91;;;13.35;61.71
58967;BME280;44744;51.894;5.080;2022-07-06T03:03:53;102686.29;;;13.32;61.85
58967;BME280;44744;51.894;5.080;2022-07-06T03:06:26;102687.30;;;13.29;61.86
58967;BME280;44744;51.894;5.080;2022-07-06T03:07:26;102694.23;;;13.29;61.85
58967;BME280;44744;51.894;5.080;2022-07-06T03:08:27;102690.48;;;13.29;61.88
58967;BME280;44744;51.894;5.080;2022-07-06T03:09:27;102691.54;;;13.29;61.91
58967;BME280;44744;51.894;5.080;2022-07-06T03:10:28;102691.71;;;13.29;61.93
58967;BME280;44744;51.894;5.080;2022-07-06T03:11:28;102695.27;;;13.29;62.00
58967;BME280;44744;51.894;5.080;2022-07-06T03:12:29;102691.71;;;13.30;61.94
58967;BME280;44744;51.894;5.080;2022-07-06T03:13:29;102695.98;;;13.30;62.04
58967;BME280;44744;51.894;5.080;2022-07-06T03:14:30;102694.38;;;13.30;61.93
58967;BME280;44744;51.894;5.080;2022-07-06T03:16:02;102697.02;;;13.30;62.04
58967;BME280;44744;51.894;5.080;2022-07-06T03:17:23;102700.92;;;13.30;62.17
58967;BME280;44744;51.894;5.080;2022-07-06T03:18:23;102699.14;;;13.30;62.13
58967;BME280;44744;51.894;5.080;2022-07-06T03:19:49;102700.25;;;13.29;62.15
58967;BME280;44744;51.894;5.080;2022-07-06T03:20:50;102700.95;;;13.30;62.13
58967;BME280;44744;51.894;5.080;2022-07-06T03:22:20;102696.16;;;13.29;62.24
58967;BME280;44744;51.894;5.080;2022-07-06T03:23:30;102691.56;;;13.29;62.19
58967;BME280;44744;51.894;5.080;2022-07-06T03:26:25;102693.22;;;13.28;62.17
58967;BME280;44744;51.894;5.080;2022-07-06T03:27:25;102691.89;;;13.25;62.28
58967;BME280;44744;51.894;5.080;2022-07-06T03:28:25;102693.09;;;13.26;62.34
58967;BME280;44744;51.894;5.080;2022-07-06T03:29:26;102690.55;;;13.28;62.33
58967;BME280;44744;51.894;5.080;2022-07-06T03:30:29;102688.91;;;13.28;62.44
58967;BME280;44744;51.894;5.080;2022-07-06T03:31:56;102691.89;;;13.30;62.48
58967;BME280;44744;51.894;5.080;2022-07-06T03:33:02;102697.21;;;13.30;62.47
58967;BME280;44744;51.894;5.080;2022-07-06T03:34:03;102698.09;;;13.30;62.51
58967;BME280;44744;51.894;5.080;2022-07-06T03:35:04;102700.21;;;13.30;62.54
58967;BME280;44744;51.894;5.080;2022-07-06T03:37:18;102698.03;;;13.31;62.51
58967;BME280;44744;51.894;5.080;2022-07-06T03:38:19;102697.50;;;13.32;62.58
58967;BME280;44744;51.894;5.080;2022-07-06T03:39:19;102695.55;;;13.32;62.56
58967;BME280;44744;51.894;5.080;2022-07-06T03:40:20;102697.46;;;13.33;62.66
58967;BME280;44744;51.894;5.080;2022-07-06T03:41:29;102698.36;;;13.32;62.66
58967;BME280;44744;51.894;5.080;2022-07-06T03:42:33;102700.27;;;13.34;62.67
58967;BME280;44744;51.894;5.080;2022-07-06T03:43:33;102700.43;;;13.35;62.80
58967;BME280;44744;51.894;5.080;2022-07-06T03:44:34;102700.02;;;13.37;62.83
58967;BME280;44744;51.894;5.080;2022-07-06T03:45:43;102697.86;;;13.37;62.79
58967;BME280;44744;51.894;5.080;2022-07-06T03:46:47;102699.10;;;13.38;62.82
58967;BME280;44744;51.894;5.080;2022-07-06T03:47:50;102696.23;;;13.38;62.90
58967;BME280;44744;51.894;5.080;2022-07-06T03:48:54;102694.94;;;13.39;62.97
58967;BME280;44744;51.894;5.080;2022-07-06T03:49:55;102693.98;;;13.41;62.96
58967;BME280;44744;51.894;5.080;2022-07-06T03:50:55;102691.44;;;13.42;62.95
58967;BME280;44744;51.894;5.080;2022-07-06T03:51:56;102688.01;;;13.44;62.96
58967;BME280;44744;51.894;5.080;2022-07-06T03:53:33;102690.60;;;13.46;62.97
58967;BME280;44744;51.894;5.080;2022-07-06T03:54:33;102688.42;;;13.47;63.03
58967;BME280;44744;51.894;5.080;2022-07-06T03:55:34;102689.31;;;13.47;62.99
58967;BME280;44744;51.894;5.080;2022-07-06T03:56:34;102689.42;;;13.49;63.07
58967;BME280;44744;51.894;5.080;2022-07-06T03:57:38;102690.58;;;13.52;62.99
58967;BME280;44744;51.894;5.080;2022-07-06T03:58:39;102690.35;;;13.53;63.03
58967;BME280;44744;51.894;5.080;2022-07-06T03:59:45;102690.15;;;13.53;63.06
58967;BME280;44744;51.894;5.080;2022-07-06T04:00:45;102690.83;;;13.54;63.13
58967;BME280;44744;51.894;5.080;2022-07-06T04:01:46;102690.09;;;13.55;63.18
58967;BME280;44744;51.894;5.080;2022-07-06T04:02:46;102687.39;;;13.56;63.14
58967;BME280;44744;51.894;5.080;2022-07-06T04:03:46;102689.65;;;13.57;63.15
58967;BME280;44744;51.894;5.080;2022-07-06T04:04:47;102688.89;;;13.59;63.23
58967;BME280;44744;51.894;5.080;2022-07-06T04:05:50;102690.47;;;13.58;63.23
58967;BME280;44744;51.894;5.080;2022-07-06T04:06:50;102689.87;;;13.60;63.26
58967;BME280;44744;51.894;5.080;2022-07-06T04:08:03;102691.23;;;13.62;63.32
58967;BME280;44744;51.894;5.080;2022-07-06T04:09:34;102691.90;;;13.63;63.34
58967;BME280;44744;51.894;5.080;2022-07-06T04:10:46;102690.86;;;13.63;63.35
58967;BME280;44744;51.894;5.080;2022-07-06T04:11:56;102688.35;;;13.63;63.35
58967;BME280;44744;51.894;5.080;2022-07-06T04:12:59;102688.88;;;13.63;63.36
58967;BME280;44744;51.894;5.080;2022-07-06T04:14:00;102686.13;;;13.65;63.38
58967;BME280;44744;51.894;5.080;2022-07-06T04:15:03;102690.14;;;13.68;63.39
58967;BME280;44744;51.894;5.080;2022-07-06T04:16:04;102684.40;;;13.69;63.35
58967;BME280;44744;51.894;5.080;2022-07-06T04:17:04;102684.00;;;13.70;63.39
58967;BME280;44744;51.894;5.080;2022-07-06T04:18:04;102687.84;;;13.72;63.40
58967;BME280;44744;51.894;5.080;2022-07-06T04:19:05;102685.66;;;13.73;63.36
58967;BME280;44744;51.894;5.080;2022-07-06T04:20:07;102685.06;;;13.75;63.32
58967;BME280;44744;51.894;5.080;2022-07-06T04:21:07;102684.31;;;13.76;63.36
58967;BME280;44744;51.894;5.080;2022-07-06T04:22:08;102684.10;;;13.77;63.35
58967;BME280;44744;51.894;5.080;2022-07-06T04:23:08;102689.92;;;13.78;63.34
58967;BME280;44744;51.894;5.080;2022-07-06T04:24:11;102686.88;;;13.78;63.34
58967;BME280;44744;51.894;5.080;2022-07-06T04:25:11;102690.40;;;13.79;63.32
58967;BME280;44744;51.894;5.080;2022-07-06T04:26:41;102688.77;;;13.80;63.34
58967;BME280;44744;51.894;5.080;2022-07-06T04:27:44;102689.64;;;13.80;63.29
58967;BME280;44744;51.894;5.080;2022-07-06T04:28:50;102688.22;;;13.80;63.30
58967;BME280;44744;51.894;5.080;2022-07-06T04:29:52;102683.59;;;13.81;63.29
58967;BME280;44744;51.894;5.080;2022-07-06T04:30:55;102685.14;;;13.82;63.31
58967;BME280;44744;51.894;5.080;2022-07-06T04:31:59;102685.80;;;13.83;63.41
58967;BME280;44744;51.894;5.080;2022-07-06T04:33:02;102681.16;;;13.83;63.39
58967;BME280;44744;51.894;5.080;2022-07-06T04:34:05;102684.14;;;13.85;63.39
58967;BME280;44744;51.894;5.080;2022-07-06T04:35:06;102686.59;;;13.86;63.46
58967;BME280;44744;51.894;5.080;2022-07-06T04:36:06;102684.42;;;13.86;63.44
58967;BME280;44744;51.894;5.080;2022-07-06T04:37:07;102685.10;;;13.87;63.53
58967;BME280;44744;51.894;5.080;2022-07-06T04:38:07;102684.55;;;13.88;63.46
58967;BME280;44744;51.894;5.080;2022-07-06T04:39:08;102683.98;;;13.89;63.48
58967;BME280;44744;51.894;5.080;2022-07-06T04:40:11;102686.80;;;13.90;63.40
58967;BME280;44744;51.894;5.080;2022-07-06T04:41:33;102684.42;;;13.91;63.49
58967;BME280;44744;51.894;5.080;2022-07-06T04:42:32;102683.19;;;13.91;63.39
58967;BME280;44744;51.894;5.080;2022-07-06T04:43:33;102687.45;;;13.91;63.43
58967;BME280;44744;51.894;5.080;2022-07-06T04:44:36;102685.65;;;13.92;63.44
58967;BME280;44744;51.894;5.080;2022-07-06T04:45:40;102689.16;;;13.93;63.50
58967;BME280;44744;51.894;5.080;2022-07-06T04:46:40;102688.95;;;13.93;63.46
58967;BME280;44744;51.894;5.080;2022-07-06T04:47:40;102690.00;;;13.94;63.44
58967;BME280;44744;51.894;5.080;2022-07-06T04:48:41;102691.75;;;13.94;63.44
58967;BME280;44744;51.894;5.080;2022-07-06T04:49:41;102692.63;;;13.95;63.44
58967;BME280;44744;51.894;5.080;2022-07-06T04:50:42;102692.13;;;13.94;63.40
58967;BME280;44744;51.894;5.080;2022-07-06T04:51:42;102689.50;;;13.93;63.52
58967;BME280;44744;51.894;5.080;2022-07-06T04:52:46;102691.28;;;13.93;63.54
58967;BME280;44744;51.894;5.080;2022-07-06T04:54:16;102690.27;;;13.92;63.48
58967;BME280;44744;51.894;5.080;2022-07-06T04:55:16;102689.61;;;13.90;63.58
58967;BME280;44744;51.894;5.080;2022-07-06T04:56:22;102689.32;;;13.89;63.47
58967;BME280;44744;51.894;5.080;2022-07-06T04:57:27;102693.44;;;13.88;63.61
58967;BME280;44744;51.894;5.080;2022-07-06T04:58:28;102691.33;;;13.88;63.66
58967;BME280;44744;51.894;5.080;2022-07-06T04:59:31;102689.88;;;13.88;63.70
58967;BME280;44744;51.894;5.080;2022-07-06T05:00:32;102689.50;;;13.89;63.69
58967;BME280;44744;51.894;5.080;2022-07-06T05:01:44;102691.27;;;13.89;63.64
58967;BME280;44744;51.894;5.080;2022-07-06T05:02:44;102693.54;;;13.90;63.72
58967;BME280;44744;51.894;5.080;2022-07-06T05:03:58;102691.90;;;13.90;63.74
58967;BME280;44744;51.894;5.080;2022-07-06T05:05:07;102694.55;;;13.92;63.81
58967;BME280;44744;51.894;5.080;2022-07-06T05:06:10;102697.16;;;13.93;63.95
58967;BME280;44744;51.894;5.080;2022-07-06T05:07:13;102695.70;;;13.94;63.86
58967;BME280;44744;51.894;5.080;2022-07-06T05:08:16;102697.81;;;13.94;63.84
58967;BME280;44744;51.894;5.080;2022-07-06T05:09:17;102697.64;;;13.94;63.91
58967;BME280;44744;51.894;5.080;2022-07-06T05:10:17;102698.70;;;13.94;64.00
58967;BME280;44744;51.894;5.080;2022-07-06T05:11:20;102696.91;;;13.95;64.13
58967;BME280;44744;51.894;5.080;2022-07-06T05:12:28;102699.04;;;13.94;64.12
58967;BME280;44744;51.894;5.080;2022-07-06T05:14:10;102699.44;;;13.94;64.27
58967;BME280;44744;51.894;5.080;2022-07-06T05:15:53;102705.35;;;13.92;64.26
58967;BME280;44744;51.894;5.080;2022-07-06T05:17:34;102708.25;;;13.91;64.32
58967;BME280;44744;51.894;5.080;2022-07-06T05:20:29;102708.45;;;13.91;64.41
58967;BME280;44744;51.894;5.080;2022-07-06T05:21:34;102711.81;;;13.91;64.49
58967;BME280;44744;51.894;5.080;2022-07-06T05:22:55;102712.54;;;13.91;64.60
58967;BME280;44744;51.894;5.080;2022-07-06T05:23:55;102716.73;;;13.92;64.64
58967;BME280;44744;51.894;5.080;2022-07-06T05:24:56;102718.98;;;13.94;64.75
58967;BME280;44744;51.894;5.080;2022-07-06T05:25:56;102716.09;;;13.95;64.75
58967;BME280;44744;51.894;5.080;2022-07-06T05:27:06;102717.46;;;13.96;64.88
58967;BME280;44744;51.894;5.080;2022-07-06T05:28:11;102717.23;;;13.98;64.89
58967;BME280;44744;51.894;5.080;2022-07-06T05:29:12;102718.41;;;13.99;64.83
58967;BME280;44744;51.894;5.080;2022-07-06T05:32:32;102718.47;;;14.03;65.01
58967;BME280;44744;51.894;5.080;2022-07-06T05:34:12;102716.32;;;14.03;65.15
58967;BME280;44744;51.894;5.080;2022-07-06T05:35:14;102715.20;;;14.05;65.06
58967;BME280;44744;51.894;5.080;2022-07-06T05:36:47;102714.80;;;14.06;65.14
58967;BME280;44744;51.894;5.080;2022-07-06T05:38:28;102711.47;;;14.09;65.03
58967;BME280;44744;51.894;5.080;2022-07-06T05:39:41;102711.61;;;14.10;65.04
58967;BME280;44744;51.894;5.080;2022-07-06T05:40:41;102713.00;;;14.11;65.14
58967;BME280;44744;51.894;5.080;2022-07-06T05:41:42;102710.62;;;14.12;65.31
58967;BME280;44744;51.894;5.080;2022-07-06T05:42:42;102707.69;;;14.14;65.23
58967;BME280;44744;51.894;5.080;2022-07-06T05:43:43;102711.74;;;14.15;65.30
58967;BME280;44744;51.894;5.080;2022-07-06T05:44:46;102704.91;;;14.17;65.25
58967;BME280;44744;51.894;5.080;2022-07-06T05:45:49;102708.41;;;14.18;65.27
58967;BME280;44744;51.894;5.080;2022-07-06T05:46:52;102707.69;;;14.19;65.10
58967;BME280;44744;51.894;5.080;2022-07-06T05:48:16;102706.59;;;14.20;65.30
58967;BME280;44744;51.894;5.080;2022-07-06T05:49:16;102707.61;;;14.21;65.14
58967;BME280;44744;51.894;5.080;2022-07-06T05:50:42;102707.44;;;14.21;65.17
58967;BME280;44744;51.894;5.080;2022-07-06T05:51:48;102711.98;;;14.23;65.15
58967;BME280;44744;51.894;5.080;2022-07-06T05:53:04;102708.92;;;14.23;65.24
58967;BME280;44744;51.894;5.080;2022-07-06T05:54:04;102711.00;;;14.25;65.27
58967;BME280;44744;51.894;5.080;2022-07-06T05:55:05;102714.86;;;14.26;65.24